Time;durP1;ratioP1;P1;durP2;ratioP2;P2;SDS_P1;SDS_P2;PMS_P1;PMS_P2;Temp;Humidity;BMP_temperature;BMP_pressure;BME280_temperature;BME280_humidity;BME280_pressure;Samples;Min_cycle;Max_cycle;Signal;HPM_P1;HPM_P2
2021/10/31 00:00:27;;;;;;;4.47;3.10;;;15.30;99.90;;;;;;5036212;28;20026;-84
2021/10/31 00:02:53;;;;;;;3.72;3.35;;;15.20;99.90;;;;;;5038056;28;20060;-83
2021/10/31 00:05:18;;;;;;;4.80;3.83;;;15.20;99.90;;;;;;5038314;28;20041;-84
2021/10/31 00:07:44;;;;;;;3.83;3.42;;;15.10;99.90;;;;;;5039991;28;20049;-84
2021/10/31 00:10:10;;;;;;;7.45;3.83;;;15.30;99.90;;;;;;5035694;28;20075;-84
2021/10/31 00:12:36;;;;;;;5.28;3.63;;;15.10;99.90;;;;;;5033861;28;20065;-85
2021/10/31 00:15:03;;;;;;;4.70;3.35;;;15.10;99.90;;;;;;5039461;28;20022;-84
2021/10/31 00:17:29;;;;;;;3.58;3.17;;;15.10;99.90;;;;;;5038168;28;20457;-84
2021/10/31 00:19:54;;;;;;;3.20;2.90;;;15.10;99.90;;;;;;5038208;28;20113;-84
2021/10/31 00:22:20;;;;;;;4.45;3.13;;;15.20;99.90;;;;;;5040304;28;20021;-84
2021/10/31 00:24:46;;;;;;;3.45;3.15;;;15.10;99.90;;;;;;5016405;28;20033;-84
2021/10/31 00:27:12;;;;;;;3.53;3.22;;;15.10;99.90;;;;;;5037715;28;20030;-84
2021/10/31 00:29:43;;;;;;;4.03;3.10;;;15.20;99.90;;;;;;5038995;28;20410;-83
2021/10/31 00:32:09;;;;;;;3.30;3.00;;;15.00;99.90;;;;;;5037841;28;20035;-84
2021/10/31 00:34:36;;;;;;;3.45;2.97;;;15.10;99.90;;;;;;5037855;28;20074;-84
2021/10/31 00:37:05;;;;;;;4.57;2.80;;;15.10;99.90;;;;;;5035566;28;20089;-84
2021/10/31 00:39:33;;;;;;;2.92;2.40;;;15.10;99.90;;;;;;5035231;28;20040;-84
2021/10/31 00:42:08;;;;;;;3.17;2.22;;;15.10;99.90;;;;;;5035563;28;20470;-85
2021/10/31 00:44:34;;;;;;;2.25;2.05;;;15.00;99.90;;;;;;5037696;28;20470;-84
2021/10/31 00:46:59;;;;;;;3.70;2.17;;;14.90;99.90;;;;;;5037351;28;20037;-84
2021/10/31 00:49:25;;;;;;;5.43;2.28;;;14.70;99.90;;;;;;5037583;28;20025;-84
2021/10/31 00:51:52;;;;;;;2.35;2.15;;;14.90;99.90;;;;;;5033381;28;20024;-83
2021/10/31 00:54:17;;;;;;;2.45;2.03;;;15.00;99.90;;;;;;5037028;28;20017;-84
2021/10/31 00:56:43;;;;;;;2.60;2.28;;;15.00;99.90;;;;;;5037764;28;20493;-84
2021/10/31 00:59:09;;;;;;;3.08;2.25;;;15.00;99.90;;;;;;5038019;28;20071;-84
2021/10/31 01:01:35;;;;;;;1.83;1.70;;;15.40;99.90;;;;;;5037475;28;20332;-84
2021/10/31 01:04:01;;;;;;;3.58;2.30;;;15.00;99.90;;;;;;5035185;28;20013;-84
2021/10/31 01:06:54;;;;;;;2.42;2.22;;;15.00;99.90;;;;;;5034534;28;20041;-85
2021/10/31 01:09:32;;;;;;;3.63;2.60;;;15.00;99.90;;;;;;5043879;28;20456;-84
2021/10/31 01:12:19;;;;;;;4.10;2.65;;;15.00;99.90;;;;;;5034429;28;20030;-84
2021/10/31 01:15:21;;;;;;;3.25;2.95;;;15.00;99.90;;;;;;5038473;28;20084;-84
2021/10/31 01:17:56;;;;;;;3.63;2.95;;;15.00;99.90;;;;;;5036058;28;20087;-85
2021/10/31 01:20:39;;;;;;;3.35;3.05;;;14.90;99.90;;;;;;5036060;28;20025;-84
2021/10/31 01:23:24;;;;;;;3.45;3.00;;;15.00;99.90;;;;;;5036060;28;20037;-84
2021/10/31 01:26:01;;;;;;;5.50;3.25;;;15.40;99.90;;;;;;5035829;28;20390;-84
2021/10/31 01:29:05;;;;;;;3.38;2.80;;;14.90;99.90;;;;;;5035671;28;20035;-84
2021/10/31 01:32:03;;;;;;;3.55;3.20;;;14.90;99.90;;;;;;5038550;28;20013;-84
2021/10/31 01:34:35;;;;;;;3.70;2.50;;;14.80;99.90;;;;;;4995232;28;20040;-84
2021/10/31 01:37:12;;;;;;;3.30;3.00;;;14.80;99.90;;;;;;4992367;28;20081;-84
2021/10/31 01:39:48;;;;;;;3.08;2.78;;;14.80;99.90;;;;;;4992182;28;20042;-84
2021/10/31 01:42:22;;;;;;;3.45;3.15;;;14.80;99.90;;;;;;4994906;28;20053;-84
2021/10/31 01:45:20;;;;;;;3.42;3.13;;;15.30;99.90;;;;;;4995121;28;20052;-84
2021/10/31 01:47:57;;;;;;;3.65;3.35;;;14.80;99.90;;;;;;4992537;28;20506;-84
2021/10/31 01:50:39;;;;;;;4.05;3.72;;;14.80;99.90;;;;;;4994672;28;20530;-84
2021/10/31 01:53:29;;;;;;;4.40;4.00;;;14.70;99.90;;;;;;4994691;28;20042;-84
2021/10/31 01:56:12;;;;;;;4.38;3.97;;;14.70;99.90;;;;;;4953369;28;20043;-85
2021/10/31 01:58:48;;;;;;;4.50;4.10;;;14.70;99.90;;;;;;4951788;28;20039;-85
2021/10/31 02:01:16;;;;;;;5.50;4.90;;;14.80;99.90;;;;;;4951999;28;20121;-84
2021/10/31 02:03:47;;;;;;;4.80;4.30;;;14.70;99.90;;;;;;4952042;28;20038;-84
2021/10/31 02:06:13;;;;;;;5.10;4.60;;;14.60;99.90;;;;;;4951744;29;20063;-84
2021/10/31 02:08:41;;;;;;;4.90;4.50;;;15.10;99.90;;;;;;4951831;28;20042;-84
2021/10/31 02:11:10;;;;;;;5.43;4.43;;;14.60;99.90;;;;;;4967956;28;20124;-84
2021/10/31 02:13:40;;;;;;;4.82;4.38;;;14.50;99.90;;;;;;4989698;28;20441;-84
2021/10/31 02:16:05;;;;;;;5.28;4.78;;;14.50;99.90;;;;;;4990337;28;20066;-84
2021/10/31 02:18:33;;;;;;;5.15;4.65;;;14.50;99.90;;;;;;4989993;28;20085;-84
2021/10/31 02:21:00;;;;;;;5.68;5.00;;;14.60;99.90;;;;;;4989754;28;20031;-84
2021/10/31 02:23:27;;;;;;;5.10;4.60;;;15.00;99.90;;;;;;4990425;28;20038;-84
2021/10/31 02:25:52;;;;;;;5.63;5.13;;;14.60;99.90;;;;;;4989019;28;20117;-84
2021/10/31 02:28:18;;;;;;;6.22;4.80;;;14.90;99.90;;;;;;4990170;28;20121;-83
2021/10/31 02:30:48;;;;;;;5.05;4.60;;;14.70;99.90;;;;;;4990630;28;20105;-86
2021/10/31 02:33:13;;;;;;;5.53;4.80;;;14.70;99.90;;;;;;5014704;28;20424;-84
2021/10/31 02:35:40;;;;;;;6.15;4.70;;;14.80;99.90;;;;;;5036157;28;20025;-84
2021/10/31 02:38:09;;;;;;;5.63;4.85;;;14.80;99.90;;;;;;5036417;28;20034;-84
2021/10/31 02:40:37;;;;;;;5.38;4.70;;;14.80;99.90;;;;;;5036274;28;20112;-84
2021/10/31 02:43:04;;;;;;;5.40;4.88;;;15.00;99.90;;;;;;5033599;28;20029;-84
2021/10/31 02:45:30;;;;;;;4.95;4.35;;;15.10;99.90;;;;;;5033770;28;20032;-83
2021/10/31 02:48:09;;;;;;;5.10;4.60;;;14.70;99.90;;;;;;5036052;28;20044;-84
2021/10/31 02:50:39;;;;;;;5.22;4.72;;;14.90;99.90;;;;;;5036133;28;20080;-84
2021/10/31 02:53:33;;;;;;;5.60;4.82;;;14.70;99.90;;;;;;5036264;28;20041;-83
2021/10/31 02:56:18;;;;;;;5.65;5.15;;;14.70;99.90;;;;;;5036088;28;20418;-83
2021/10/31 02:59:12;;;;;;;6.07;5.45;;;14.70;99.90;;;;;;5036181;28;20557;-84
2021/10/31 03:01:39;;;;;;;6.35;5.38;;;14.70;99.90;;;;;;5037855;28;20056;-84
2021/10/31 03:04:05;;;;;;;6.25;5.25;;;14.70;99.90;;;;;;5038839;28;20033;-84
2021/10/31 03:06:31;;;;;;;6.07;5.22;;;14.60;99.90;;;;;;5036104;28;20482;-84
2021/10/31 03:08:56;;;;;;;6.35;5.55;;;14.80;99.90;;;;;;5039021;28;20071;-84
2021/10/31 03:11:22;;;;;;;7.32;5.85;;;14.70;99.90;;;;;;5038127;28;20029;-84
2021/10/31 03:13:48;;;;;;;6.03;5.43;;;14.60;99.90;;;;;;5038433;28;20068;-84
2021/10/31 03:16:14;;;;;;;6.47;5.45;;;14.90;99.90;;;;;;5037287;28;20064;-84
2021/10/31 03:18:39;;;;;;;6.47;5.85;;;14.80;99.90;;;;;;5034806;28;20037;-84
2021/10/31 03:21:05;;;;;;;5.95;5.35;;;14.60;99.90;;;;;;5038565;28;20033;-84
2021/10/31 03:23:31;;;;;;;6.22;5.60;;;14.60;99.90;;;;;;5038281;28;20021;-84
2021/10/31 03:25:56;;;;;;;11.68;5.60;;;14.40;99.90;;;;;;5037849;28;20401;-84
2021/10/31 03:28:22;;;;;;;6.55;5.95;;;14.40;99.90;;;;;;5038013;28;20028;-84
2021/10/31 03:30:48;;;;;;;6.72;5.95;;;14.50;99.90;;;;;;5033611;28;20025;-84
2021/10/31 03:33:14;;;;;;;7.53;6.25;;;14.50;99.90;;;;;;5038494;28;20030;-84
2021/10/31 03:35:41;;;;;;;7.63;6.50;;;14.50;99.90;;;;;;5037810;28;20049;-84
2021/10/31 03:38:06;;;;;;;8.23;6.60;;;14.60;99.90;;;;;;5040700;28;20064;-84
2021/10/31 03:40:32;;;;;;;7.80;7.00;;;14.50;99.90;;;;;;5046951;28;20062;-84
2021/10/31 03:42:58;;;;;;;8.50;6.85;;;14.90;99.90;;;;;;5036649;28;20035;-83
2021/10/31 03:45:24;;;;;;;8.57;6.60;;;14.90;99.90;;;;;;5037400;28;20025;-84
2021/10/31 03:47:50;;;;;;;8.23;6.88;;;14.50;99.90;;;;;;5038550;28;20068;-84
2021/10/31 03:50:18;;;;;;;8.45;7.57;;;14.40;99.90;;;;;;5038933;28;20080;-84
2021/10/31 03:52:44;;;;;;;7.57;6.57;;;14.30;99.90;;;;;;5038692;28;20037;-83
2021/10/31 03:55:11;;;;;;;6.18;5.30;;;14.30;99.90;;;;;;5037169;28;20031;-84
2021/10/31 03:57:38;;;;;;;7.07;6.00;;;14.70;99.90;;;;;;5035621;28;20116;-84
2021/10/31 04:00:06;;;;;;;6.53;5.90;;;14.00;99.90;;;;;;5037831;28;20034;-84
2021/10/31 04:02:32;;;;;;;7.65;6.18;;;13.90;99.90;;;;;;5038908;28;20096;-84
2021/10/31 04:04:57;;;;;;;7.13;6.43;;;13.90;99.90;;;;;;5036981;28;20042;-84
2021/10/31 04:07:23;;;;;;;8.55;6.53;;;14.00;99.90;;;;;;5037387;28;20049;-84
2021/10/31 04:09:49;;;;;;;7.28;6.30;;;14.10;99.90;;;;;;5032767;28;20496;-84
2021/10/31 04:12:14;;;;;;;9.10;6.82;;;14.10;99.90;;;;;;5037284;28;20025;-84
2021/10/31 04:14:40;;;;;;;7.93;5.95;;;14.50;99.90;;;;;;5036702;28;20033;-84
2021/10/31 04:17:05;;;;;;;8.45;6.72;;;14.10;99.90;;;;;;5037041;28;20044;-83
2021/10/31 04:19:31;;;;;;;6.50;5.90;;;14.00;99.90;;;;;;5036673;28;20029;-84
2021/10/31 04:21:57;;;;;;;7.00;6.30;;;14.00;99.90;;;;;;5035804;28;20056;-84
2021/10/31 04:24:22;;;;;;;7.35;6.22;;;14.10;99.90;;;;;;5036558;28;20375;-83
2021/10/31 04:26:50;;;;;;;8.27;6.53;;;14.60;99.90;;;;;;5038194;28;20041;-84
2021/10/31 04:29:16;;;;;;;7.65;6.65;;;13.90;99.90;;;;;;5036794;28;20033;-84
2021/10/31 04:31:41;;;;;;;7.90;6.07;;;13.90;99.90;;;;;;5038086;28;20033;-84
2021/10/31 04:34:07;;;;;;;6.18;5.57;;;13.90;99.90;;;;;;5034826;28;20029;-84
2021/10/31 04:36:33;;;;;;;8.85;6.18;;;13.90;99.90;;;;;;5034494;28;20470;-84
2021/10/31 04:38:59;;;;;;;7.28;6.00;;;13.90;99.90;;;;;;5037042;28;20045;-84
2021/10/31 04:41:28;;;;;;;7.35;6.30;;;13.80;99.90;;;;;;5036558;28;20026;-84
2021/10/31 04:43:54;;;;;;;7.20;5.95;;;13.70;99.90;;;;;;5036311;28;20929;-84
2021/10/31 04:46:20;;;;;;;7.60;6.57;;;13.70;99.90;;;;;;5038057;28;20032;-84
2021/10/31 04:48:45;;;;;;;9.13;6.53;;;13.70;99.90;;;;;;5032258;28;20042;-84
2021/10/31 04:51:11;;;;;;;7.68;6.13;;;13.50;99.90;;;;;;5036845;28;20079;-84
2021/10/31 04:53:37;;;;;;;8.98;6.55;;;13.50;99.90;;;;;;5037735;28;20043;-84
2021/10/31 04:56:03;;;;;;;8.43;7.47;;;13.50;99.90;;;;;;5036087;28;20022;-84
2021/10/31 04:58:28;;;;;;;7.93;7.13;;;13.50;99.90;;;;;;5037377;28;20115;-84
2021/10/31 05:00:54;;;;;;;8.15;7.35;;;13.40;99.90;;;;;;5032907;28;20562;-84
2021/10/31 05:03:20;;;;;;;8.63;7.43;;;13.30;99.90;;;;;;5035648;28;20127;-83
2021/10/31 05:05:46;;;;;;;9.15;7.45;;;13.40;99.90;;;;;;5036257;28;20029;-84
2021/10/31 05:08:11;;;;;;;11.13;7.85;;;13.40;99.90;;;;;;5036619;28;20056;-84
2021/10/31 05:10:37;;;;;;;11.02;8.55;;;13.40;99.90;;;;;;5036027;28;20032;-84
2021/10/31 05:13:02;;;;;;;10.48;7.55;;;13.40;99.90;;;;;;5034910;28;20091;-84
2021/10/31 05:15:28;;;;;;;9.32;8.00;;;13.50;99.90;;;;;;5034169;28;20052;-84
2021/10/31 05:17:55;;;;;;;9.55;7.72;;;13.50;99.90;;;;;;5036778;28;20116;-84
2021/10/31 05:20:21;;;;;;;8.95;7.20;;;13.60;99.90;;;;;;5037514;28;20539;-84
2021/10/31 05:22:47;;;;;;;8.73;6.90;;;13.50;99.90;;;;;;5035400;28;20108;-84
2021/10/31 05:25:13;;;;;;;8.63;6.95;;;13.50;99.90;;;;;;5036054;28;20029;-84
2021/10/31 05:27:38;;;;;;;11.13;7.93;;;13.60;99.90;;;;;;5032368;28;20081;-84
2021/10/31 05:30:07;;;;;;;9.20;8.20;;;13.80;99.90;;;;;;5036591;28;20061;-84
2021/10/31 05:32:34;;;;;;;9.25;7.60;;;13.60;99.90;;;;;;5036478;28;20055;-84
2021/10/31 05:35:00;;;;;;;11.20;7.88;;;13.70;99.90;;;;;;5035356;28;20112;-84
2021/10/31 05:37:33;;;;;;;8.77;7.80;;;13.60;99.90;;;;;;5036500;28;20056;-84
2021/10/31 05:39:59;;;;;;;9.45;7.72;;;13.50;99.90;;;;;;5032334;28;20032;-85
2021/10/31 05:42:25;;;;;;;8.77;7.75;;;13.40;99.90;;;;;;5034046;28;20033;-84
2021/10/31 05:44:50;;;;;;;9.20;7.57;;;13.30;99.90;;;;;;5035785;28;20729;-84
2021/10/31 05:47:16;;;;;;;7.97;7.15;;;13.40;99.90;;;;;;5037263;28;20045;-84
2021/10/31 05:49:42;;;;;;;11.27;7.50;;;13.30;99.90;;;;;;5035650;28;20760;-84
2021/10/31 05:52:07;;;;;;;9.35;7.35;;;13.20;99.90;;;;;;5034258;28;20068;-84
2021/10/31 05:54:34;;;;;;;9.77;7.63;;;13.50;99.90;;;;;;5033328;28;20021;-84
2021/10/31 05:56:59;;;;;;;8.98;8.02;;;13.20;99.90;;;;;;5033241;28;20060;-84
2021/10/31 05:59:25;;;;;;;9.68;8.68;;;13.60;99.90;;;;;;5036404;28;20501;-83
2021/10/31 06:01:53;;;;;;;11.50;9.25;;;13.20;99.90;;;;;;5035570;28;20482;-83
2021/10/31 06:04:19;;;;;;;11.32;8.85;;;13.20;99.90;;;;;;5036079;28;20025;-83
2021/10/31 06:06:46;;;;;;;11.13;9.15;;;13.20;99.90;;;;;;5030785;28;20596;-82
2021/10/31 06:09:12;;;;;;;11.63;8.90;;;13.20;99.90;;;;;;5035974;28;20033;-81
2021/10/31 06:11:38;;;;;;;11.23;8.55;;;13.60;99.90;;;;;;5036750;28;20030;-80
2021/10/31 06:14:04;;;;;;;10.65;8.85;;;13.60;99.90;;;;;;5035193;28;20045;-82
2021/10/31 06:16:29;;;;;;;11.38;9.15;;;13.20;99.90;;;;;;5036295;28;20029;-82
2021/10/31 06:18:55;;;;;;;10.23;8.93;;;13.20;99.90;;;;;;5031844;28;20033;-82
2021/10/31 06:21:21;;;;;;;12.10;9.55;;;13.60;99.90;;;;;;5034709;28;20022;-80
2021/10/31 06:23:46;;;;;;;9.52;8.52;;;13.20;99.90;;;;;;5036260;28;20079;-80
2021/10/31 06:26:12;;;;;;;10.50;9.25;;;13.20;99.90;;;;;;5034280;28;20029;-82
2021/10/31 06:28:38;;;;;;;9.90;8.90;;;13.20;99.90;;;;;;5036106;28;20076;-81
2021/10/31 06:31:03;;;;;;;9.65;7.88;;;13.30;99.90;;;;;;5032965;28;20057;-83
2021/10/31 06:33:29;;;;;;;8.23;7.30;;;13.50;99.90;;;;;;5033567;28;20484;-84
2021/10/31 06:35:55;;;;;;;8.57;7.75;;;13.30;99.90;;;;;;5036402;28;20026;-82
2021/10/31 06:38:21;;;;;;;8.40;7.60;;;13.20;99.90;;;;;;5030792;28;20405;-82
2021/10/31 06:40:47;;;;;;;8.05;7.25;;;13.20;99.90;;;;;;5039684;28;20026;-82
2021/10/31 06:43:13;;;;;;;7.80;6.90;;;13.30;99.90;;;;;;5037722;28;20040;-82
2021/10/31 06:45:38;;;;;;;7.97;6.88;;;13.60;99.90;;;;;;5037079;28;20029;-81
2021/10/31 06:48:06;;;;;;;8.98;7.80;;;13.40;99.90;;;;;;5039020;28;20124;-83
2021/10/31 06:50:32;;;;;;;8.68;7.78;;;13.20;99.90;;;;;;5038641;28;20032;-83
2021/10/31 06:52:58;;;;;;;9.55;8.55;;;13.30;99.90;;;;;;5039461;28;20034;-83
2021/10/31 06:55:24;;;;;;;10.27;8.77;;;13.40;99.90;;;;;;5038346;28;20028;-83
2021/10/31 06:57:49;;;;;;;12.18;10.80;;;13.50;99.90;;;;;;5035488;28;20025;-83
2021/10/31 07:00:16;;;;;;;11.50;10.30;;;13.50;99.90;;;;;;5039396;28;20032;-83
2021/10/31 07:02:42;;;;;;;14.32;11.27;;;13.50;99.90;;;;;;5037423;28;20410;-83
2021/10/31 07:05:08;;;;;;;12.93;10.38;;;13.50;99.90;;;;;;5039454;28;20029;-83
2021/10/31 07:07:34;;;;;;;10.90;9.80;;;13.90;99.90;;;;;;5038002;28;20048;-83
2021/10/31 07:09:59;;;;;;;11.55;9.82;;;13.40;99.90;;;;;;5035813;28;20024;-83
2021/10/31 07:12:25;;;;;;;11.95;10.50;;;13.50;99.90;;;;;;5037091;28;20030;-84
2021/10/31 07:14:51;;;;;;;13.10;10.30;;;13.40;99.90;;;;;;5038583;28;20525;-82
2021/10/31 07:17:16;;;;;;;12.70;10.70;;;13.20;99.90;;;;;;5038760;28;20556;-84
2021/10/31 07:19:42;;;;;;;14.35;12.07;;;13.50;99.90;;;;;;5038732;28;20079;-83
2021/10/31 07:22:08;;;;;;;17.63;12.63;;;13.20;99.90;;;;;;5037342;28;20025;-82
2021/10/31 07:24:34;;;;;;;14.02;11.82;;;13.30;99.90;;;;;;5036107;28;20096;-83
2021/10/31 07:27:00;;;;;;;14.80;11.60;;;13.40;99.90;;;;;;5038375;28;20021;-82
2021/10/31 07:29:25;;;;;;;17.80;12.27;;;13.50;99.90;;;;;;5039081;28;20033;-84
2021/10/31 07:31:51;;;;;;;16.73;12.20;;;13.60;99.90;;;;;;5037555;28;20026;-83
2021/10/31 07:34:17;;;;;;;14.05;11.77;;;13.70;99.90;;;;;;5037644;28;20060;-83
2021/10/31 07:36:42;;;;;;;15.77;11.45;;;13.80;99.90;;;;;;5034377;28;20025;-83
2021/10/31 07:39:09;;;;;;;14.73;11.20;;;13.80;99.90;;;;;;5038797;28;20033;-83
2021/10/31 07:41:36;;;;;;;14.98;11.63;;;14.00;99.90;;;;;;5044533;28;20074;-83
2021/10/31 07:44:02;;;;;;;12.95;11.00;;;14.20;99.90;;;;;;5043465;28;20029;-84
2021/10/31 07:46:27;;;;;;;13.05;11.10;;;14.50;99.90;;;;;;5038263;28;20387;-83
2021/10/31 07:48:53;;;;;;;12.25;9.80;;;15.40;99.90;;;;;;5033037;28;20025;-83
2021/10/31 07:51:19;;;;;;;11.90;8.82;;;16.70;99.90;;;;;;5037834;28;20025;-83
2021/10/31 07:53:44;;;;;;;9.30;8.30;;;18.80;99.90;;;;;;5038464;28;20520;-83
2021/10/31 07:56:14;;;;;;;9.55;8.43;;;21.70;99.90;;;;;;5037803;28;20393;-84
2021/10/31 07:58:42;;;;;;;7.65;6.88;;;23.60;99.90;;;;;;5020998;28;20111;-83
2021/10/31 08:01:10;;;;;;;8.20;7.28;;;23.90;99.90;;;;;;5036171;28;20478;-83
2021/10/31 08:03:36;;;;;;;7.40;6.65;;;26.60;99.90;;;;;;5035674;28;20562;-90
2021/10/31 08:06:01;;;;;;;8.05;7.25;;;26.70;99.90;;;;;;5022876;28;20116;-82
2021/10/31 08:08:28;;;;;;;7.88;6.50;;;28.20;99.90;;;;;;5037200;28;20045;-83
2021/10/31 08:10:54;;;;;;;7.40;6.65;;;28.90;99.90;;;;;;5037245;28;20039;-82
2021/10/31 08:13:25;;;;;;;7.32;6.63;;;28.30;99.90;;;;;;5036725;28;20037;-81
2021/10/31 08:15:52;;;;;;;8.32;6.60;;;28.80;99.90;;;;;;5017173;28;20052;-83
2021/10/31 08:18:17;;;;;;;6.53;5.82;;;29.50;99.90;;;;;;5037812;28;20545;-84
2021/10/31 08:20:43;;;;;;;6.80;6.10;;;30.40;99.90;;;;;;5037256;28;20108;-83
2021/10/31 08:23:10;;;;;;;7.20;6.50;;;30.40;99.90;;;;;;5037258;28;20025;-83
2021/10/31 08:25:36;;;;;;;6.80;5.95;;;31.40;99.90;;;;;;5036949;28;20031;-81
2021/10/31 08:28:04;;;;;;;6.45;5.85;;;32.70;99.90;;;;;;5034054;28;20042;-82
2021/10/31 08:30:32;;;;;;;6.18;4.85;;;32.70;99.90;;;;;;5034725;28;20454;-81
2021/10/31 08:33:06;;;;;;;4.88;4.47;;;32.10;99.90;;;;;;5037473;28;20449;-81
2021/10/31 08:35:31;;;;;;;4.43;4.00;;;32.70;99.90;;;;;;5036784;28;20030;-83
2021/10/31 08:37:57;;;;;;;4.28;3.88;;;34.60;99.90;;;;;;5037088;28;20026;-85
2021/10/31 08:40:23;;;;;;;3.90;3.60;;;33.50;99.90;;;;;;5036952;28;20025;-85
2021/10/31 08:42:48;;;;;;;4.18;3.80;;;33.50;99.90;;;;;;5014303;28;20399;-84
2021/10/31 08:45:14;;;;;;;4.30;3.90;;;31.00;99.90;;;;;;5036867;28;20025;-84
2021/10/31 08:47:40;;;;;;;6.13;4.43;;;27.50;99.90;;;;;;5036438;28;20041;-84
2021/10/31 08:50:07;;;;;;;4.75;4.25;;;24.00;99.90;;;;;;5036380;28;20030;-84
2021/10/31 08:52:33;;;;;;;4.40;4.00;;;22.90;99.90;;;;;;5036471;28;20035;-83
2021/10/31 08:54:58;;;;;;;4.28;3.92;;;22.80;99.90;;;;;;5032903;28;20486;-83
2021/10/31 08:57:24;;;;;;;4.35;3.95;;;23.60;99.90;;;;;;5035380;28;20040;-83
2021/10/31 08:59:49;;;;;;;4.18;3.78;;;23.60;99.90;;;;;;5036002;28;20021;-83
2021/10/31 09:02:15;;;;;;;4.38;3.55;;;23.00;99.90;;;;;;5036377;28;20040;-83
2021/10/31 09:04:41;;;;;;;4.13;3.35;;;22.00;99.90;;;;;;5035812;28;20389;-83
2021/10/31 09:07:09;;;;;;;2.80;2.50;;;21.90;99.90;;;;;;5026084;28;20038;-83
2021/10/31 09:09:35;;;;;;;4.75;3.30;;;23.20;99.90;;;;;;5014784;28;20040;-83
2021/10/31 09:12:01;;;;;;;3.60;2.90;;;29.90;99.90;;;;;;5014345;28;20109;-83
2021/10/31 09:14:27;;;;;;;4.43;2.65;;;31.00;99.90;;;;;;5017326;28;20554;-83
2021/10/31 09:16:52;;;;;;;3.42;2.40;;;33.00;99.90;;;;;;5017342;28;20106;-83
2021/10/31 09:19:18;;;;;;;2.40;2.20;;;32.30;99.90;;;;;;5016540;28;20030;-83
2021/10/31 09:21:44;;;;;;;2.88;1.92;;;32.70;99.90;;;;;;5013585;28;20030;-83
2021/10/31 09:24:10;;;;;;;2.28;2.10;;;34.50;99.90;;;;;;5016330;28;20049;-83
2021/10/31 09:26:35;;;;;;;2.58;2.38;;;37.20;99.90;;;;;;5016906;28;20570;-83
2021/10/31 09:29:02;;;;;;;2.63;2.30;;;36.90;99.90;;;;;;5017094;28;20040;-82
2021/10/31 09:31:28;;;;;;;2.40;2.20;;;34.80;99.90;;;;;;5017291;28;20056;-82
2021/10/31 09:33:54;;;;;;;2.13;1.80;;;35.60;99.90;;;;;;5012983;28;20057;-82
2021/10/31 09:36:21;;;;;;;1.17;1.08;;;32.20;99.90;;;;;;5015901;28;20105;-82
2021/10/31 09:38:48;;;;;;;1.90;1.00;;;26.70;99.90;;;;;;5018856;28;20044;-81
2021/10/31 09:41:14;;;;;;;0.80;0.80;;;25.40;99.90;;;;;;5016957;28;20550;-82
2021/10/31 09:43:49;;;;;;;1.00;0.88;;;25.20;99.90;;;;;;5016873;28;20052;-81
2021/10/31 09:46:15;;;;;;;1.23;0.82;;;25.90;99.90;;;;;;5015638;28;20478;-83
2021/10/31 09:48:41;;;;;;;0.88;0.88;;;30.30;99.90;;;;;;5013613;28;20033;-84
2021/10/31 09:51:07;;;;;;;1.50;0.70;;;28.40;99.90;;;;;;5016002;28;20040;-83
2021/10/31 09:53:32;;;;;;;1.15;0.70;;;32.10;99.90;;;;;;5016917;28;20413;-84
2021/10/31 09:55:58;;;;;;;1.50;0.90;;;33.00;99.90;;;;;;5017226;28;20109;-83
2021/10/31 09:58:34;;;;;;;1.30;0.82;;;32.70;99.90;;;;;;5016513;28;20489;-84
2021/10/31 10:01:20;;;;;;;0.75;0.75;;;33.40;99.90;;;;;;5013782;28;20052;-84
2021/10/31 10:03:53;;;;;;;1.90;0.90;;;32.00;99.90;;;;;;5012872;28;20037;-83
2021/10/31 10:06:21;;;;;;;0.70;0.70;;;33.80;99.90;;;;;;5023166;28;20017;-82
2021/10/31 10:09:07;;;;;;;0.75;0.70;;;29.40;99.90;;;;;;4999206;28;20038;-83
2021/10/31 10:11:35;;;;;;;0.77;0.77;;;29.90;99.90;;;;;;5017753;28;20113;-83
2021/10/31 10:14:10;;;;;;;1.42;0.90;;;27.60;99.90;;;;;;5021018;28;20486;-85
2021/10/31 10:16:36;;;;;;;1.13;0.80;;;26.20;99.90;;;;;;5020412;28;20076;-84
2021/10/31 10:19:17;;;;;;;1.65;0.75;;;24.80;99.90;;;;;;5017673;28;20034;-85
2021/10/31 10:21:43;;;;;;;0.82;0.77;;;24.00;99.90;;;;;;5016970;28;20120;-83
2021/10/31 10:24:11;;;;;;;0.70;0.70;;;24.80;99.90;;;;;;5020133;28;20112;-82
2021/10/31 10:26:42;;;;;;;0.70;0.70;;;26.60;99.90;;;;;;5020022;28;20433;-86
2021/10/31 10:29:17;;;;;;;0.80;0.80;;;29.50;99.90;;;;;;5020794;28;20030;-85
2021/10/31 10:31:50;;;;;;;1.10;0.75;;;32.60;99.90;;;;;;5020564;28;20033;-83
2021/10/31 10:34:16;;;;;;;0.60;0.60;;;32.00;99.90;;;;;;5018864;28;20030;-82
2021/10/31 10:36:47;;;;;;;1.40;0.75;;;31.90;99.90;;;;;;5016833;28;20116;-83
2021/10/31 10:39:18;;;;;;;0.70;0.70;;;30.60;99.90;;;;;;5019524;28;20076;-83
2021/10/31 10:41:51;;;;;;;0.93;0.70;;;29.90;99.90;;;;;;5020214;28;20030;-85
2021/10/31 10:44:21;;;;;;;0.68;0.60;;;32.50;99.90;;;;;;5020052;28;20057;-85
2021/10/31 10:46:53;;;;;;;0.82;0.63;;;33.10;99.90;;;;;;5020061;28;20397;-86
2021/10/31 10:49:20;;;;;;;1.52;0.73;;;32.90;99.90;;;;;;5019221;28;20029;-86
2021/10/31 10:52:05;;;;;;;0.73;0.70;;;32.60;99.90;;;;;;5016666;28;20101;-86
2021/10/31 10:54:31;;;;;;;0.75;0.75;;;33.20;99.90;;;;;;5028038;28;20076;-86
2021/10/31 10:57:05;;;;;;;0.70;0.70;;;35.20;99.90;;;;;;5020110;28;20061;-85
2021/10/31 10:59:32;;;;;;;0.80;0.73;;;34.00;99.90;;;;;;5019877;28;20553;-86
2021/10/31 11:02:24;;;;;;;0.85;0.75;;;34.60;99.90;;;;;;5020191;28;20458;-85
2021/10/31 11:04:55;;;;;;;0.65;0.60;;;34.70;99.90;;;;;;5017130;28;20037;-85
2021/10/31 11:07:32;;;;;;;0.70;0.70;;;34.90;99.90;;;;;;5019426;28;20067;-86
2021/10/31 11:09:58;;;;;;;1.08;0.70;;;35.80;99.90;;;;;;5001539;28;20363;-86
2021/10/31 11:12:36;;;;;;;2.40;0.70;;;36.80;99.90;;;;;;5017863;28;20022;-83
2021/10/31 11:15:03;;;;;;;0.80;0.68;;;37.20;99.90;;;;;;5016724;28;20022;-81
2021/10/31 11:17:29;;;;;;;1.25;0.80;;;34.50;99.90;;;;;;5019718;28;20045;-83
2021/10/31 11:19:56;;;;;;;0.80;0.70;;;34.90;99.90;;;;;;5019548;28;20030;-81
2021/10/31 11:22:24;;;;;;;1.00;0.90;;;35.10;99.90;;;;;;5019036;28;20033;-81
2021/10/31 11:24:51;;;;;;;0.80;0.80;;;35.20;99.90;;;;;;4999079;28;20049;-85
2021/10/31 11:27:26;;;;;;;1.17;0.80;;;35.10;99.90;;;;;;5025764;28;20044;-87
2021/10/31 11:29:54;;;;;;;1.98;1.00;;;35.40;99.90;;;;;;5018931;28;20033;-86
2021/10/31 11:32:21;;;;;;;0.73;0.70;;;36.20;99.90;;;;;;5019196;28;20048;-86
2021/10/31 11:34:57;;;;;;;0.70;0.70;;;36.00;99.90;;;;;;5018970;28;20022;-89
2021/10/31 11:37:26;;;;;;;0.90;0.80;;;37.10;99.90;;;;;;5019594;28;20021;-87
2021/10/31 11:39:56;;;;;;;0.68;0.68;;;37.00;99.90;;;;;;4999508;28;20025;-86
2021/10/31 11:42:24;;;;;;;1.58;0.70;;;35.90;99.90;;;;;;5017491;28;20026;-86
2021/10/31 11:45:06;;;;;;;0.70;0.70;;;36.30;99.90;;;;;;5019118;28;20144;-84
2021/10/31 11:47:32;;;;;;;0.70;0.63;;;34.60;99.90;;;;;;5018935;28;20038;-90
2021/10/31 11:50:18;;;;;;;0.70;0.70;;;34.90;99.90;;;;;;5018990;28;20022;-85
2021/10/31 11:52:59;;;;;;;0.95;0.80;;;37.40;99.90;;;;;;5018565;28;20449;-86
2021/10/31 11:55:24;;;;;;;0.80;0.80;;;35.60;99.90;;;;;;5018740;28;20040;-83
2021/10/31 11:57:55;;;;;;;1.70;0.70;;;35.00;99.90;;;;;;5014091;28;20468;-84
2021/10/31 12:00:22;;;;;;;0.85;0.75;;;33.40;99.90;;;;;;5025907;28;20099;-87
2021/10/31 12:02:51;;;;;;;0.75;0.73;;;32.90;99.90;;;;;;5018277;28;20511;-83
2021/10/31 12:05:37;;;;;;;1.15;0.60;;;34.50;99.90;;;;;;5017788;28;20038;-83
2021/10/31 12:08:08;;;;;;;0.90;0.80;;;32.90;99.90;;;;;;5016810;28;20414;-83
2021/10/31 12:10:37;;;;;;;1.02;0.90;;;33.60;99.90;;;;;;5037988;28;20099;-83
2021/10/31 12:13:22;;;;;;;0.95;0.85;;;32.70;99.90;;;;;;5035404;28;20017;-83
2021/10/31 12:16:04;;;;;;;1.08;0.98;;;33.30;99.90;;;;;;5017008;28;20026;-83
2021/10/31 12:18:44;;;;;;;0.70;0.70;;;34.00;99.90;;;;;;5046559;28;20512;-82
2021/10/31 12:21:23;;;;;;;1.92;0.80;;;34.40;99.90;;;;;;5036845;28;20025;-85
2021/10/31 12:23:53;;;;;;;0.95;0.73;;;34.60;99.90;;;;;;5037574;28;20036;-82
2021/10/31 12:26:21;;;;;;;0.82;0.82;;;34.40;99.90;;;;;;5037264;28;20021;-82
2021/10/31 12:28:47;;;;;;;1.95;1.00;;;33.70;99.90;;;;;;5037749;28;20033;-83
2021/10/31 12:31:29;;;;;;;1.23;0.90;;;34.50;99.90;;;;;;5035420;28;20021;-83
2021/10/31 12:34:16;;;;;;;1.23;0.90;;;33.20;99.90;;;;;;5019278;28;20053;-83
2021/10/31 12:36:48;;;;;;;0.88;0.88;;;32.10;99.90;;;;;;5033126;28;20026;-83
2021/10/31 12:39:27;;;;;;;0.85;0.77;;;32.40;99.90;;;;;;5036972;28;20285;-83
2021/10/31 12:42:15;;;;;;;0.73;0.73;;;30.70;99.90;;;;;;5038199;28;20071;-83
2021/10/31 12:44:48;;;;;;;1.30;0.90;;;32.20;99.90;;;;;;5037796;28;20028;-83
2021/10/31 12:47:18;;;;;;;0.77;0.73;;;32.60;99.90;;;;;;5036812;28;20037;-83
2021/10/31 12:49:46;;;;;;;0.70;0.70;;;32.20;99.90;;;;;;5037563;28;20537;-83
2021/10/31 12:52:27;;;;;;;0.70;0.70;;;33.30;99.90;;;;;;5034819;28;20506;-83
2021/10/31 12:55:03;;;;;;;1.05;0.95;;;33.60;99.90;;;;;;5018429;28;20035;-83